sensor_id;sensor_type;location;lat;lon;timestamp;temperature;humidity
11242;DHT22;5678;52.370;9.006;2022-12-15T00:00:00;-8.60;99.90
11242;DHT22;5678;52.370;9.006;2022-12-15T00:02:46;-8.60;99.90
11242;DHT22;5678;52.370;9.006;2022-12-15T00:05:31;-8.60;99.90
11242;DHT22;5678;52.370;9.006;2022-12-15T00:08:17;-8.60;99.90
11242;DHT22;5678;52.370;9.006;2022-12-15T00:11:02;-8.60;99.90
11242;DHT22;5678;52.370;9.006;2022-12-15T00:13:48;-8.50;99.90
11242;DHT22;5678;52.370;9.006;2022-12-15T00:16:35;-8.60;99.90
11242;DHT22;5678;52.370;9.006;2022-12-15T00:19:20;-8.70;99.90
11242;DHT22;5678;52.370;9.006;2022-12-15T00:22:06;-8.70;99.90
11242;DHT22;5678;52.370;9.006;2022-12-15T00:24:51;-8.60;99.90
11242;DHT22;5678;52.370;9.006;2022-12-15T00:27:37;-8.50;99.90
11242;DHT22;5678;52.370;9.006;2022-12-15T00:30:23;-8.50;99.90
11242;DHT22;5678;52.370;9.006;2022-12-15T00:33:10;-8.50;99.90
11242;DHT22;5678;52.370;9.006;2022-12-15T00:35:57;-8.40;99.90
11242;DHT22;5678;52.370;9.006;2022-12-15T00:38:43;-8.30;99.90
11242;DHT22;5678;52.370;9.006;2022-12-15T00:41:13;-8.30;99.90
11242;DHT22;5678;52.370;9.006;2022-12-15T00:43:41;-8.20;99.90
11242;DHT22;5678;52.370;9.006;2022-12-15T00:46:09;-8.10;99.90
11242;DHT22;5678;52.370;9.006;2022-12-15T00:48:56;-8.10;99.90
11242;DHT22;5678;52.370;9.006;2022-12-15T00:51:24;-8.10;99.90
11242;DHT22;5678;52.370;9.006;2022-12-15T00:54:10;-8.10;99.90
11242;DHT22;5678;52.370;9.006;2022-12-15T00:56:56;-8.10;99.90
11242;DHT22;5678;52.370;9.006;2022-12-15T00:59:41;-8.20;99.90
11242;DHT22;5678;52.370;9.006;2022-12-15T01:02:27;-8.10;99.90
11242;DHT22;5678;52.370;9.006;2022-12-15T01:05:14;-8.10;99.90
11242;DHT22;5678;52.370;9.006;2022-12-15T01:07:59;-8.10;99.90
11242;DHT22;5678;52.370;9.006;2022-12-15T01:10:45;-8.10;99.90
11242;DHT22;5678;52.370;9.006;2022-12-15T01:13:30;-8.10;99.90
11242;DHT22;5678;52.370;9.006;2022-12-15T01:16:16;-8.20;99.90
11242;DHT22;5678;52.370;9.006;2022-12-15T01:19:01;-8.20;99.90
11242;DHT22;5678;52.370;9.006;2022-12-15T01:21:48;-8.20;99.90
11242;DHT22;5678;52.370;9.006;2022-12-15T01:24:16;-8.20;99.90
11242;DHT22;5678;52.370;9.006;2022-12-15T01:26:44;-8.20;99.90
11242;DHT22;5678;52.370;9.006;2022-12-15T01:29:12;-8.20;99.90
11242;DHT22;5678;52.370;9.006;2022-12-15T01:31:40;-8.10;99.90
11242;DHT22;5678;52.370;9.006;2022-12-15T01:34:09;-8.20;99.90
11242;DHT22;5678;52.370;9.006;2022-12-15T01:36:37;-8.00;99.90
11242;DHT22;5678;52.370;9.006;2022-12-15T01:39:06;-8.00;99.90
11242;DHT22;5678;52.370;9.006;2022-12-15T01:41:34;-8.00;99.90
11242;DHT22;5678;52.370;9.006;2022-12-15T01:44:14;-8.00;99.90
11242;DHT22;5678;52.370;9.006;2022-12-15T01:46:44;-7.90;99.90
11242;DHT22;5678;52.370;9.006;2022-12-15T01:49:15;-7.80;99.90
11242;DHT22;5678;52.370;9.006;2022-12-15T01:51:47;-7.80;99.90
11242;DHT22;5678;52.370;9.006;2022-12-15T01:54:21;-7.70;99.90
11242;DHT22;5678;52.370;9.006;2022-12-15T01:56:53;-7.70;99.90
11242;DHT22;5678;52.370;9.006;2022-12-15T01:59:26;-7.60;99.90
11242;DHT22;5678;52.370;9.006;2022-12-15T02:01:57;-7.40;99.90
11242;DHT22;5678;52.370;9.006;2022-12-15T02:04:25;-7.30;99.90
11242;DHT22;5678;52.370;9.006;2022-12-15T02:06:53;-7.40;99.90
11242;DHT22;5678;52.370;9.006;2022-12-15T02:09:23;-7.30;99.90
11242;DHT22;5678;52.370;9.006;2022-12-15T02:11:58;-7.30;99.90
11242;DHT22;5678;52.370;9.006;2022-12-15T02:14:43;-7.20;99.90
11242;DHT22;5678;52.370;9.006;2022-12-15T02:17:18;-7.20;99.90
11242;DHT22;5678;52.370;9.006;2022-12-15T02:23:06;-7.20;99.90
11242;DHT22;5678;52.370;9.006;2022-12-15T02:25:53;-7.10;99.90
11242;DHT22;5678;52.370;9.006;2022-12-15T02:28:34;-6.90;99.90
11242;DHT22;5678;52.370;9.006;2022-12-15T02:31:14;-7.10;99.90
11242;DHT22;5678;52.370;9.006;2022-12-15T02:34:06;-7.00;99.90
11242;DHT22;5678;52.370;9.006;2022-12-15T02:36:37;-7.20;99.90
11242;DHT22;5678;52.370;9.006;2022-12-15T02:39:06;-7.10;99.90
11242;DHT22;5678;52.370;9.006;2022-12-15T02:41:37;-7.00;99.90
11242;DHT22;5678;52.370;9.006;2022-12-15T02:44:09;-7.00;99.90
11242;DHT22;5678;52.370;9.006;2022-12-15T02:46:51;-7.00;99.90
11242;DHT22;5678;52.370;9.006;2022-12-15T02:49:27;-7.00;99.90
11242;DHT22;5678;52.370;9.006;2022-12-15T02:52:12;-7.00;99.90
11242;DHT22;5678;52.370;9.006;2022-12-15T02:54:58;-6.70;99.90
11242;DHT22;5678;52.370;9.006;2022-12-15T02:57:35;-6.90;99.90
11242;DHT22;5678;52.370;9.006;2022-12-15T03:00:06;-6.90;99.90
11242;DHT22;5678;52.370;9.006;2022-12-15T03:02:39;-5.50;99.90
11242;DHT22;5678;52.370;9.006;2022-12-15T03:05:09;-6.80;99.90
11242;DHT22;5678;52.370;9.006;2022-12-15T03:07:38;-6.90;99.90
11242;DHT22;5678;52.370;9.006;2022-12-15T03:10:10;-7.00;99.90
11242;DHT22;5678;52.370;9.006;2022-12-15T03:12:38;-6.90;99.90
11242;DHT22;5678;52.370;9.006;2022-12-15T03:15:07;-6.90;99.90
11242;DHT22;5678;52.370;9.006;2022-12-15T03:17:36;-6.90;99.90
11242;DHT22;5678;52.370;9.006;2022-12-15T03:20:05;-6.90;99.90
11242;DHT22;5678;52.370;9.006;2022-12-15T03:22:34;-6.90;99.90
11242;DHT22;5678;52.370;9.006;2022-12-15T03:25:03;-7.00;99.90
11242;DHT22;5678;52.370;9.006;2022-12-15T03:27:31;-6.90;99.90
11242;DHT22;5678;52.370;9.006;2022-12-15T03:29:59;-7.00;99.90
11242;DHT22;5678;52.370;9.006;2022-12-15T03:32:28;-6.90;99.90
11242;DHT22;5678;52.370;9.006;2022-12-15T03:34:58;-6.90;99.90
11242;DHT22;5678;52.370;9.006;2022-12-15T03:37:26;-7.00;99.90
11242;DHT22;5678;52.370;9.006;2022-12-15T03:39:54;-6.90;99.90
11242;DHT22;5678;52.370;9.006;2022-12-15T03:42:22;-6.90;99.90
11242;DHT22;5678;52.370;9.006;2022-12-15T03:45:05;-6.80;99.90
11242;DHT22;5678;52.370;9.006;2022-12-15T03:47:33;-6.70;99.90
11242;DHT22;5678;52.370;9.006;2022-12-15T03:50:03;-6.60;99.90
11242;DHT22;5678;52.370;9.006;2022-12-15T03:52:31;-6.50;99.90
11242;DHT22;5678;52.370;9.006;2022-12-15T03:54:58;-6.50;99.90
11242;DHT22;5678;52.370;9.006;2022-12-15T03:57:26;-6.50;99.90
11242;DHT22;5678;52.370;9.006;2022-12-15T03:59:54;-6.40;99.90
11242;DHT22;5678;52.370;9.006;2022-12-15T04:02:22;-6.50;99.90
11242;DHT22;5678;52.370;9.006;2022-12-15T04:04:50;-6.50;99.90
11242;DHT22;5678;52.370;9.006;2022-12-15T04:07:20;-6.40;99.90
11242;DHT22;5678;52.370;9.006;2022-12-15T04:09:48;-6.40;99.90
11242;DHT22;5678;52.370;9.006;2022-12-15T04:12:16;-6.40;99.90
11242;DHT22;5678;52.370;9.006;2022-12-15T04:14:44;-6.50;99.90
11242;DHT22;5678;52.370;9.006;2022-12-15T04:17:15;-6.50;99.90
11242;DHT22;5678;52.370;9.006;2022-12-15T04:19:43;-6.50;99.90
11242;DHT22;5678;52.370;9.006;2022-12-15T04:22:30;-6.40;99.90
11242;DHT22;5678;52.370;9.006;2022-12-15T04:24:57;-6.50;99.90
11242;DHT22;5678;52.370;9.006;2022-12-15T04:27:43;-6.50;99.90
11242;DHT22;5678;52.370;9.006;2022-12-15T04:30:29;-6.60;99.90
11242;DHT22;5678;52.370;9.006;2022-12-15T04:33:15;-6.50;99.90
11242;DHT22;5678;52.370;9.006;2022-12-15T04:36:02;-6.40;99.90
11242;DHT22;5678;52.370;9.006;2022-12-15T04:38:49;-6.00;99.90
11242;DHT22;5678;52.370;9.006;2022-12-15T04:41:34;-6.50;99.90
11242;DHT22;5678;52.370;9.006;2022-12-15T04:44:20;-6.50;99.90
11242;DHT22;5678;52.370;9.006;2022-12-15T04:47:06;-6.50;99.90
11242;DHT22;5678;52.370;9.006;2022-12-15T04:49:51;-6.40;99.90
11242;DHT22;5678;52.370;9.006;2022-12-15T04:52:37;-6.30;99.90
11242;DHT22;5678;52.370;9.006;2022-12-15T04:55:23;-6.40;99.90
11242;DHT22;5678;52.370;9.006;2022-12-15T05:00:47;-6.40;99.90
11242;DHT22;5678;52.370;9.006;2022-12-15T05:03:33;-6.00;99.90
11242;DHT22;5678;52.370;9.006;2022-12-15T05:06:18;-6.40;99.90
11242;DHT22;5678;52.370;9.006;2022-12-15T05:09:04;-6.30;99.90
11242;DHT22;5678;52.370;9.006;2022-12-15T05:11:50;-6.30;99.90
11242;DHT22;5678;52.370;9.006;2022-12-15T05:14:36;-6.30;99.90
11242;DHT22;5678;52.370;9.006;2022-12-15T05:17:21;-6.30;99.90
11242;DHT22;5678;52.370;9.006;2022-12-15T05:20:08;-6.30;99.90
11242;DHT22;5678;52.370;9.006;2022-12-15T05:22:54;-6.30;99.90
11242;DHT22;5678;52.370;9.006;2022-12-15T05:25:40;-6.30;99.90
11242;DHT22;5678;52.370;9.006;2022-12-15T05:28:27;-6.40;99.90
11242;DHT22;5678;52.370;9.006;2022-12-15T05:31:13;-6.50;99.90
11242;DHT22;5678;52.370;9.006;2022-12-15T05:33:58;-6.30;99.90
11242;DHT22;5678;52.370;9.006;2022-12-15T05:36:31;-6.30;99.90
11242;DHT22;5678;52.370;9.006;2022-12-15T05:38:59;-6.30;99.90
11242;DHT22;5678;52.370;9.006;2022-12-15T05:41:26;-6.30;99.90
11242;DHT22;5678;52.370;9.006;2022-12-15T05:43:56;-6.40;99.90
11242;DHT22;5678;52.370;9.006;2022-12-15T05:46:24;-6.20;99.90
11242;DHT22;5678;52.370;9.006;2022-12-15T05:48:52;-6.30;99.90
11242;DHT22;5678;52.370;9.006;2022-12-15T05:51:20;-6.20;99.90
11242;DHT22;5678;52.370;9.006;2022-12-15T05:53:48;-6.20;99.90
11242;DHT22;5678;52.370;9.006;2022-12-15T05:56:16;-6.40;99.90
11242;DHT22;5678;52.370;9.006;2022-12-15T05:58:44;-6.20;99.90
11242;DHT22;5678;52.370;9.006;2022-12-15T06:01:15;-6.20;99.90
11242;DHT22;5678;52.370;9.006;2022-12-15T06:03:43;-6.40;99.90
11242;DHT22;5678;52.370;9.006;2022-12-15T06:06:12;-6.30;99.90
11242;DHT22;5678;52.370;9.006;2022-12-15T06:08:41;-6.20;99.90
11242;DHT22;5678;52.370;9.006;2022-12-15T06:11:10;-6.20;99.90
11242;DHT22;5678;52.370;9.006;2022-12-15T06:13:39;-6.20;99.90
11242;DHT22;5678;52.370;9.006;2022-12-15T06:16:10;-6.10;99.90
11242;DHT22;5678;52.370;9.006;2022-12-15T06:18:41;-6.20;99.90
11242;DHT22;5678;52.370;9.006;2022-12-15T06:21:17;-6.10;99.90
11242;DHT22;5678;52.370;9.006;2022-12-15T06:23:46;-6.10;99.90
11242;DHT22;5678;52.370;9.006;2022-12-15T06:26:17;-6.00;99.90
11242;DHT22;5678;52.370;9.006;2022-12-15T06:28:45;-6.10;99.90
11242;DHT22;5678;52.370;9.006;2022-12-15T06:31:14;-6.00;99.90
11242;DHT22;5678;52.370;9.006;2022-12-15T06:33:44;-6.00;99.90
11242;DHT22;5678;52.370;9.006;2022-12-15T06:36:14;-6.00;99.90
11242;DHT22;5678;52.370;9.006;2022-12-15T06:38:42;-6.00;99.90
11242;DHT22;5678;52.370;9.006;2022-12-15T06:41:17;-6.00;99.90
11242;DHT22;5678;52.370;9.006;2022-12-15T06:43:48;-6.00;99.90
11242;DHT22;5678;52.370;9.006;2022-12-15T06:46:17;-6.00;99.90
11242;DHT22;5678;52.370;9.006;2022-12-15T06:48:46;-5.90;99.90
11242;DHT22;5678;52.370;9.006;2022-12-15T06:51:15;-6.00;99.90
11242;DHT22;5678;52.370;9.006;2022-12-15T06:53:44;-6.00;99.90
11242;DHT22;5678;52.370;9.006;2022-12-15T06:56:17;-6.00;99.90
11242;DHT22;5678;52.370;9.006;2022-12-15T06:58:46;-6.10;99.90
11242;DHT22;5678;52.370;9.006;2022-12-15T07:01:15;-6.00;99.90
11242;DHT22;5678;52.370;9.006;2022-12-15T07:03:44;-6.10;99.90
11242;DHT22;5678;52.370;9.006;2022-12-15T07:06:14;-5.90;99.90
11242;DHT22;5678;52.370;9.006;2022-12-15T07:08:43;-5.90;99.90
11242;DHT22;5678;52.370;9.006;2022-12-15T07:11:18;-5.80;99.90
11242;DHT22;5678;52.370;9.006;2022-12-15T07:13:47;-5.90;99.90
11242;DHT22;5678;52.370;9.006;2022-12-15T07:16:16;-5.90;99.90
11242;DHT22;5678;52.370;9.006;2022-12-15T07:18:45;-6.00;99.90
11242;DHT22;5678;52.370;9.006;2022-12-15T07:21:14;-5.80;99.90
11242;DHT22;5678;52.370;9.006;2022-12-15T07:23:42;-6.10;99.90
11242;DHT22;5678;52.370;9.006;2022-12-15T07:26:27;-4.80;99.90
11242;DHT22;5678;52.370;9.006;2022-12-15T07:28:56;-5.80;99.90
11242;DHT22;5678;52.370;9.006;2022-12-15T07:31:24;-5.80;99.90
11242;DHT22;5678;52.370;9.006;2022-12-15T07:33:53;-5.10;99.90
11242;DHT22;5678;52.370;9.006;2022-12-15T07:36:22;-5.80;99.90
11242;DHT22;5678;52.370;9.006;2022-12-15T07:38:50;-5.70;99.90
11242;DHT22;5678;52.370;9.006;2022-12-15T07:41:18;-5.90;99.90
11242;DHT22;5678;52.370;9.006;2022-12-15T07:43:47;-5.60;99.90
11242;DHT22;5678;52.370;9.006;2022-12-15T07:46:15;-5.70;99.90
11242;DHT22;5678;52.370;9.006;2022-12-15T07:48:43;-5.70;99.90
11242;DHT22;5678;52.370;9.006;2022-12-15T07:51:17;-5.60;99.90
11242;DHT22;5678;52.370;9.006;2022-12-15T07:53:47;-5.60;99.90
11242;DHT22;5678;52.370;9.006;2022-12-15T07:56:17;-5.70;99.90
11242;DHT22;5678;52.370;9.006;2022-12-15T07:58:46;-5.60;99.90
11242;DHT22;5678;52.370;9.006;2022-12-15T08:01:14;-5.90;99.90
11242;DHT22;5678;52.370;9.006;2022-12-15T08:03:43;-5.50;99.90
11242;DHT22;5678;52.370;9.006;2022-12-15T08:06:13;-5.80;99.90
11242;DHT22;5678;52.370;9.006;2022-12-15T08:08:42;-5.50;99.90
11242;DHT22;5678;52.370;9.006;2022-12-15T08:11:19;-5.30;99.90
11242;DHT22;5678;52.370;9.006;2022-12-15T08:13:48;-5.30;99.90
11242;DHT22;5678;52.370;9.006;2022-12-15T08:16:36;-5.60;99.90
11242;DHT22;5678;52.370;9.006;2022-12-15T08:19:05;-5.20;99.90
11242;DHT22;5678;52.370;9.006;2022-12-15T08:21:33;-4.70;99.90
11242;DHT22;5678;52.370;9.006;2022-12-15T08:24:01;-5.00;99.90
11242;DHT22;5678;52.370;9.006;2022-12-15T08:26:31;-4.90;99.90
11242;DHT22;5678;52.370;9.006;2022-12-15T08:29:01;-5.00;99.90
11242;DHT22;5678;52.370;9.006;2022-12-15T08:31:50;-5.00;99.90
11242;DHT22;5678;52.370;9.006;2022-12-15T08:34:19;-4.90;99.90
11242;DHT22;5678;52.370;9.006;2022-12-15T08:36:47;-4.80;99.90
11242;DHT22;5678;52.370;9.006;2022-12-15T08:39:15;-4.60;99.90
11242;DHT22;5678;52.370;9.006;2022-12-15T08:41:45;-4.70;99.90
11242;DHT22;5678;52.370;9.006;2022-12-15T08:44:13;-4.60;99.90
11242;DHT22;5678;52.370;9.006;2022-12-15T08:46:42;-4.50;99.90
11242;DHT22;5678;52.370;9.006;2022-12-15T08:49:11;-4.30;99.90
11242;DHT22;5678;52.370;9.006;2022-12-15T08:51:47;-4.30;99.90
11242;DHT22;5678;52.370;9.006;2022-12-15T08:54:16;-4.40;99.90
11242;DHT22;5678;52.370;9.006;2022-12-15T08:56:46;-4.40;99.90
11242;DHT22;5678;52.370;9.006;2022-12-15T08:59:14;-4.10;99.90
11242;DHT22;5678;52.370;9.006;2022-12-15T09:01:42;-4.20;99.90
11242;DHT22;5678;52.370;9.006;2022-12-15T09:04:11;-4.20;99.90
11242;DHT22;5678;52.370;9.006;2022-12-15T09:06:39;-4.10;99.90
11242;DHT22;5678;52.370;9.006;2022-12-15T09:09:09;-4.00;99.90
11242;DHT22;5678;52.370;9.006;2022-12-15T09:11:38;-4.00;99.90
11242;DHT22;5678;52.370;9.006;2022-12-15T09:14:08;-3.90;99.90
11242;DHT22;5678;52.370;9.006;2022-12-15T09:16:36;-4.00;99.90
11242;DHT22;5678;52.370;9.006;2022-12-15T09:19:04;-4.00;99.90
11242;DHT22;5678;52.370;9.006;2022-12-15T09:21:33;-3.70;99.90
11242;DHT22;5678;52.370;9.006;2022-12-15T09:24:01;-3.70;99.90
11242;DHT22;5678;52.370;9.006;2022-12-15T09:26:32;-3.50;99.90
11242;DHT22;5678;52.370;9.006;2022-12-15T09:29:00;-3.50;99.90
11242;DHT22;5678;52.370;9.006;2022-12-15T09:31:32;-3.50;99.90
11242;DHT22;5678;52.370;9.006;2022-12-15T09:34:00;-3.50;99.90
11242;DHT22;5678;52.370;9.006;2022-12-15T09:36:29;-3.40;99.90
11242;DHT22;5678;52.370;9.006;2022-12-15T09:38:58;-3.30;99.90
11242;DHT22;5678;52.370;9.006;2022-12-15T09:41:30;-3.20;99.90
11242;DHT22;5678;52.370;9.006;2022-12-15T09:44:02;-3.30;99.90
11242;DHT22;5678;52.370;9.006;2022-12-15T09:46:40;-1.50;99.90
11242;DHT22;5678;52.370;9.006;2022-12-15T09:49:23;-3.30;99.90
11242;DHT22;5678;52.370;9.006;2022-12-15T09:52:02;-3.00;99.90
11242;DHT22;5678;52.370;9.006;2022-12-15T09:54:37;-3.20;99.90
11242;DHT22;5678;52.370;9.006;2022-12-15T09:57:15;-3.00;99.90
11242;DHT22;5678;52.370;9.006;2022-12-15T09:59:58;-2.40;99.90
11242;DHT22;5678;52.370;9.006;2022-12-15T10:05:37;-2.70;99.90
11242;DHT22;5678;52.370;9.006;2022-12-15T10:08:31;-2.70;99.90
11242;DHT22;5678;52.370;9.006;2022-12-15T10:11:01;-2.60;99.90
11242;DHT22;5678;52.370;9.006;2022-12-15T10:13:37;-2.50;99.90
11242;DHT22;5678;52.370;9.006;2022-12-15T10:16:17;-2.50;99.90
11242;DHT22;5678;52.370;9.006;2022-12-15T10:18:56;-2.40;99.90
11242;DHT22;5678;52.370;9.006;2022-12-15T10:21:29;-2.20;99.90
11242;DHT22;5678;52.370;9.006;2022-12-15T10:24:00;-2.40;99.90
11242;DHT22;5678;52.370;9.006;2022-12-15T10:26:35;-2.40;99.90
11242;DHT22;5678;52.370;9.006;2022-12-15T10:29:24;-2.20;99.90
11242;DHT22;5678;52.370;9.006;2022-12-15T10:31:59;-2.20;99.90
11242;DHT22;5678;52.370;9.006;2022-12-15T10:34:32;-2.20;99.90
11242;DHT22;5678;52.370;9.006;2022-12-15T10:37:01;-2.70;99.90
11242;DHT22;5678;52.370;9.006;2022-12-15T10:39:36;-2.30;99.90
11242;DHT22;5678;52.370;9.006;2022-12-15T10:42:14;-2.00;99.90
11242;DHT22;5678;52.370;9.006;2022-12-15T10:44:44;-2.00;99.90
11242;DHT22;5678;52.370;9.006;2022-12-15T10:47:19;-1.90;99.90
11242;DHT22;5678;52.370;9.006;2022-12-15T10:49:49;-1.90;99.90
11242;DHT22;5678;52.370;9.006;2022-12-15T10:52:23;-2.40;99.90
11242;DHT22;5678;52.370;9.006;2022-12-15T10:54:54;-1.70;99.90
11242;DHT22;5678;52.370;9.006;2022-12-15T10:57:24;-1.40;99.90
11242;DHT22;5678;52.370;9.006;2022-12-15T10:59:57;-1.90;99.90
11242;DHT22;5678;52.370;9.006;2022-12-15T11:02:31;-1.40;99.90
11242;DHT22;5678;52.370;9.006;2022-12-15T11:05:05;-1.70;99.90
11242;DHT22;5678;52.370;9.006;2022-12-15T11:07:44;-1.80;99.90
11242;DHT22;5678;52.370;9.006;2022-12-15T11:10:17;0.20;99.90
11242;DHT22;5678;52.370;9.006;2022-12-15T11:12:55;-0.30;99.90
11242;DHT22;5678;52.370;9.006;2022-12-15T11:15:43;-1.50;99.90
11242;DHT22;5678;52.370;9.006;2022-12-15T11:18:35;-1.20;99.90
11242;DHT22;5678;52.370;9.006;2022-12-15T11:21:11;-1.20;99.90
11242;DHT22;5678;52.370;9.006;2022-12-15T11:23:49;-1.30;99.90
11242;DHT22;5678;52.370;9.006;2022-12-15T11:26:30;-1.20;99.90
11242;DHT22;5678;52.370;9.006;2022-12-15T11:29:05;-1.00;99.90
11242;DHT22;5678;52.370;9.006;2022-12-15T11:31:37;-1.10;99.90
11242;DHT22;5678;52.370;9.006;2022-12-15T11:34:11;-1.00;99.90
11242;DHT22;5678;52.370;9.006;2022-12-15T11:37:13;-1.10;99.90
11242;DHT22;5678;52.370;9.006;2022-12-15T11:39:59;-0.90;99.90
11242;DHT22;5678;52.370;9.006;2022-12-15T11:42:42;-1.00;99.90
11242;DHT22;5678;52.370;9.006;2022-12-15T11:45:18;-1.00;99.90
11242;DHT22;5678;52.370;9.006;2022-12-15T11:47:52;0.40;99.90
11242;DHT22;5678;52.370;9.006;2022-12-15T11:50:28;-0.70;99.90
11242;DHT22;5678;52.370;9.006;2022-12-15T11:53:09;0.90;99.90
11242;DHT22;5678;52.370;9.006;2022-12-15T11:55:47;0.30;99.90
11242;DHT22;5678;52.370;9.006;2022-12-15T12:01:34;-0.60;99.90
11242;DHT22;5678;52.370;9.006;2022-12-15T12:04:13;-0.70;99.90
11242;DHT22;5678;52.370;9.006;2022-12-15T12:06:49;-0.50;99.90
11242;DHT22;5678;52.370;9.006;2022-12-15T12:09:29;-0.70;99.90
11242;DHT22;5678;52.370;9.006;2022-12-15T12:12:07;-0.70;99.90
11242;DHT22;5678;52.370;9.006;2022-12-15T12:14:46;-0.70;99.90
11242;DHT22;5678;52.370;9.006;2022-12-15T12:17:22;-0.60;99.90
11242;DHT22;5678;52.370;9.006;2022-12-15T12:19:56;0.40;99.90
11242;DHT22;5678;52.370;9.006;2022-12-15T12:22:38;1.90;99.90
11242;DHT22;5678;52.370;9.006;2022-12-15T12:25:12;-0.70;99.90
11242;DHT22;5678;52.370;9.006;2022-12-15T12:27:47;0.00;99.90
11242;DHT22;5678;52.370;9.006;2022-12-15T12:30:20;0.30;99.90
11242;DHT22;5678;52.370;9.006;2022-12-15T12:32:52;-0.70;99.90
11242;DHT22;5678;52.370;9.006;2022-12-15T12:35:29;-0.70;99.90
11242;DHT22;5678;52.370;9.006;2022-12-15T12:38:00;1.70;99.90
11242;DHT22;5678;52.370;9.006;2022-12-15T12:40:41;-0.60;99.90
11242;DHT22;5678;52.370;9.006;2022-12-15T12:43:16;-0.60;99.90
11242;DHT22;5678;52.370;9.006;2022-12-15T12:45:52;-0.60;99.90
11242;DHT22;5678;52.370;9.006;2022-12-15T12:48:24;-1.50;99.90
11242;DHT22;5678;52.370;9.006;2022-12-15T12:51:10;-0.80;99.90
11242;DHT22;5678;52.370;9.006;2022-12-15T12:53:39;1.30;99.90
11242;DHT22;5678;52.370;9.006;2022-12-15T12:56:31;-0.70;99.90
11242;DHT22;5678;52.370;9.006;2022-12-15T12:59:01;-0.40;99.90
11242;DHT22;5678;52.370;9.006;2022-12-15T13:01:34;-1.10;99.90
11242;DHT22;5678;52.370;9.006;2022-12-15T13:04:08;-0.50;99.90
11242;DHT22;5678;52.370;9.006;2022-12-15T13:06:59;-0.50;99.90
11242;DHT22;5678;52.370;9.006;2022-12-15T13:09:38;2.00;99.90
11242;DHT22;5678;52.370;9.006;2022-12-15T13:12:37;-0.40;99.90
11242;DHT22;5678;52.370;9.006;2022-12-15T13:15:33;-0.60;99.90
11242;DHT22;5678;52.370;9.006;2022-12-15T13:18:10;-0.40;99.90
11242;DHT22;5678;52.370;9.006;2022-12-15T13:20:41;-0.40;99.90
11242;DHT22;5678;52.370;9.006;2022-12-15T13:23:40;-0.40;99.90
11242;DHT22;5678;52.370;9.006;2022-12-15T13:26:13;-0.20;99.90
11242;DHT22;5678;52.370;9.006;2022-12-15T13:28:49;-0.30;99.90
11242;DHT22;5678;52.370;9.006;2022-12-15T13:31:45;1.90;99.90
11242;DHT22;5678;52.370;9.006;2022-12-15T13:34:35;-0.60;99.90
11242;DHT22;5678;52.370;9.006;2022-12-15T13:37:16;-0.50;99.90
11242;DHT22;5678;52.370;9.006;2022-12-15T13:40:01;-0.30;99.90
11242;DHT22;5678;52.370;9.006;2022-12-15T13:42:31;-1.00;99.90
11242;DHT22;5678;52.370;9.006;2022-12-15T13:48:12;-0.30;99.90
11242;DHT22;5678;52.370;9.006;2022-12-15T13:50:47;-0.30;99.90
11242;DHT22;5678;52.370;9.006;2022-12-15T13:53:21;-0.70;99.90
11242;DHT22;5678;52.370;9.006;2022-12-15T13:55:55;1.80;99.90
11242;DHT22;5678;52.370;9.006;2022-12-15T13:58:27;-0.60;99.90
11242;DHT22;5678;52.370;9.006;2022-12-15T14:00:58;-0.60;99.90
11242;DHT22;5678;52.370;9.006;2022-12-15T14:03:28;-0.80;99.90
11242;DHT22;5678;52.370;9.006;2022-12-15T14:05:58;1.70;99.90
11242;DHT22;5678;52.370;9.006;2022-12-15T14:08:28;-0.60;99.90
11242;DHT22;5678;52.370;9.006;2022-12-15T14:10:58;1.00;99.90
11242;DHT22;5678;52.370;9.006;2022-12-15T14:13:42;-0.70;99.90
11242;DHT22;5678;52.370;9.006;2022-12-15T14:16:20;-0.70;99.90
11242;DHT22;5678;52.370;9.006;2022-12-15T14:19:03;-1.10;99.90
11242;DHT22;5678;52.370;9.006;2022-12-15T14:21:35;1.50;99.90
11242;DHT22;5678;52.370;9.006;2022-12-15T14:24:14;-0.90;99.90
11242;DHT22;5678;52.370;9.006;2022-12-15T14:27:05;-0.90;99.90
11242;DHT22;5678;52.370;9.006;2022-12-15T14:29:33;-1.00;99.90
11242;DHT22;5678;52.370;9.006;2022-12-15T14:32:02;-0.80;99.90
11242;DHT22;5678;52.370;9.006;2022-12-15T14:34:35;-0.70;99.90
11242;DHT22;5678;52.370;9.006;2022-12-15T14:37:10;-1.30;99.90
11242;DHT22;5678;52.370;9.006;2022-12-15T14:39:44;-0.90;99.90
11242;DHT22;5678;52.370;9.006;2022-12-15T14:42:17;-1.00;99.90
11242;DHT22;5678;52.370;9.006;2022-12-15T14:44:46;1.00;99.90
11242;DHT22;5678;52.370;9.006;2022-12-15T14:47:24;-0.90;99.90
11242;DHT22;5678;52.370;9.006;2022-12-15T14:49:55;-1.30;99.90
11242;DHT22;5678;52.370;9.006;2022-12-15T14:52:26;-0.60;99.90
11242;DHT22;5678;52.370;9.006;2022-12-15T14:54:56;-1.30;99.90
11242;DHT22;5678;52.370;9.006;2022-12-15T14:57:27;-1.70;99.90
11242;DHT22;5678;52.370;9.006;2022-12-15T14:59:55;-1.30;99.90
11242;DHT22;5678;52.370;9.006;2022-12-15T15:02:27;-1.70;99.90
11242;DHT22;5678;52.370;9.006;2022-12-15T15:04:58;-0.10;99.90
11242;DHT22;5678;52.370;9.006;2022-12-15T15:07:30;-1.60;99.90
11242;DHT22;5678;52.370;9.006;2022-12-15T15:10:00;-1.40;99.90
11242;DHT22;5678;52.370;9.006;2022-12-15T15:12:40;-1.40;99.90
11242;DHT22;5678;52.370;9.006;2022-12-15T15:15:15;-1.60;99.90
11242;DHT22;5678;52.370;9.006;2022-12-15T15:17:48;-1.50;99.90
11242;DHT22;5678;52.370;9.006;2022-12-15T15:20:19;0.30;99.90
11242;DHT22;5678;52.370;9.006;2022-12-15T15:23:11;-1.60;99.90
11242;DHT22;5678;52.370;9.006;2022-12-15T15:25:41;-1.80;99.90
11242;DHT22;5678;52.370;9.006;2022-12-15T15:28:20;-0.20;99.90
11242;DHT22;5678;52.370;9.006;2022-12-15T15:30:50;-0.30;99.90
11242;DHT22;5678;52.370;9.006;2022-12-15T15:33:24;-2.10;99.90
11242;DHT22;5678;52.370;9.006;2022-12-15T15:35:54;-1.80;99.90
11242;DHT22;5678;52.370;9.006;2022-12-15T15:38:24;-1.40;99.90
11242;DHT22;5678;52.370;9.006;2022-12-15T15:40:55;0.70;99.90
11242;DHT22;5678;52.370;9.006;2022-12-15T15:43:24;-2.20;99.90
11242;DHT22;5678;52.370;9.006;2022-12-15T15:45:57;0.60;99.90
11242;DHT22;5678;52.370;9.006;2022-12-15T15:48:30;-0.90;99.90
11242;DHT22;5678;52.370;9.006;2022-12-15T15:51:01;-2.20;99.90
11242;DHT22;5678;52.370;9.006;2022-12-15T15:53:32;0.90;99.90
11242;DHT22;5678;52.370;9.006;2022-12-15T15:56:03;-2.00;99.90
11242;DHT22;5678;52.370;9.006;2022-12-15T15:58:33;-1.90;99.90
11242;DHT22;5678;52.370;9.006;2022-12-15T16:01:02;-0.40;99.90
11242;DHT22;5678;52.370;9.006;2022-12-15T16:03:40;-2.10;99.90
11242;DHT22;5678;52.370;9.006;2022-12-15T16:06:14;-0.30;99.90
11242;DHT22;5678;52.370;9.006;2022-12-15T16:08:45;-0.80;99.90
11242;DHT22;5678;52.370;9.006;2022-12-15T16:11:13;-0.50;99.90
11242;DHT22;5678;52.370;9.006;2022-12-15T16:13:41;-0.20;99.90
11242;DHT22;5678;52.370;9.006;2022-12-15T16:16:15;-1.90;99.90
11242;DHT22;5678;52.370;9.006;2022-12-15T16:18:46;-2.10;99.90
11242;DHT22;5678;52.370;9.006;2022-12-15T16:21:15;-1.60;99.90
11242;DHT22;5678;52.370;9.006;2022-12-15T16:23:46;-2.70;99.90
11242;DHT22;5678;52.370;9.006;2022-12-15T16:26:25;-1.40;99.90
11242;DHT22;5678;52.370;9.006;2022-12-15T16:28:54;-1.10;99.90
11242;DHT22;5678;52.370;9.006;2022-12-15T16:31:28;-2.50;99.90
11242;DHT22;5678;52.370;9.006;2022-12-15T16:34:06;-2.70;99.90
11242;DHT22;5678;52.370;9.006;2022-12-15T16:36:34;-3.20;99.90
11242;DHT22;5678;52.370;9.006;2022-12-15T16:39:02;-3.10;99.90
11242;DHT22;5678;52.370;9.006;2022-12-15T16:41:30;-2.90;99.90
11242;DHT22;5678;52.370;9.006;2022-12-15T16:43:59;-1.10;99.90
11242;DHT22;5678;52.370;9.006;2022-12-15T16:46:27;-3.30;99.90
11242;DHT22;5678;52.370;9.006;2022-12-15T16:48:55;-3.60;99.90